Terminal Aerodrome Forecast
Issued by NWS North Platte, NE

Home | Current Version | Previous Version | Text Only | Print | Product List | Glossary On
Versions: 1 2 3 4 5 6 7 8 9 10 11 12 13 14
273
FTUS43 KLBF 230520
TAFVTN
TAF
KVTN 230520Z 2306/2406 01010KT P6SM -SHRA VCTS BKN020 BKN050CB
     FM230900 01008KT P6SM VCSH BKN020 OVC040
     FM231500 01007KT P6SM -SHRA SCT007 OVC015
     FM231800 02008KT 5SM -SHRA BKN008 OVC010
     FM232100 02008KT 2SM -RA BR OVC007=

USA.gov is the U.S. government's official web portal to all federal, state and local government web resources and services.